sensor_id;sensor_type;location;lat;lon;timestamp;P1;durP1;ratioP1;P2;durP2;ratioP2
47365;SDS011;33105;47.964;7.982;2023-03-05T00:01:23;0.00;;;0.00;;
47365;SDS011;33105;47.964;7.982;2023-03-05T00:04:27;0.00;;;0.00;;
47365;SDS011;33105;47.964;7.982;2023-03-05T00:07:28;0.00;;;0.00;;
47365;SDS011;33105;47.964;7.982;2023-03-05T00:10:30;0.00;;;0.00;;
47365;SDS011;33105;47.964;7.982;2023-03-05T00:13:32;0.10;;;0.10;;
47365;SDS011;33105;47.964;7.982;2023-03-05T00:16:35;0.00;;;0.00;;
47365;SDS011;33105;47.964;7.982;2023-03-05T00:19:36;0.00;;;0.00;;
47365;SDS011;33105;47.964;7.982;2023-03-05T00:22:37;0.00;;;0.00;;
47365;SDS011;33105;47.964;7.982;2023-03-05T00:25:39;0.00;;;0.00;;
47365;SDS011;33105;47.964;7.982;2023-03-05T00:28:42;0.00;;;0.00;;
47365;SDS011;33105;47.964;7.982;2023-03-05T00:31:45;0.00;;;0.00;;
47365;SDS011;33105;47.964;7.982;2023-03-05T00:34:47;0.00;;;0.00;;
47365;SDS011;33105;47.964;7.982;2023-03-05T00:37:49;0.00;;;0.00;;
47365;SDS011;33105;47.964;7.982;2023-03-05T00:40:51;0.00;;;0.00;;
47365;SDS011;33105;47.964;7.982;2023-03-05T00:43:53;0.00;;;0.00;;
47365;SDS011;33105;47.964;7.982;2023-03-05T00:46:56;0.00;;;0.00;;
47365;SDS011;33105;47.964;7.982;2023-03-05T00:49:57;0.08;;;0.08;;
47365;SDS011;33105;47.964;7.982;2023-03-05T00:52:59;0.03;;;0.03;;
47365;SDS011;33105;47.964;7.982;2023-03-05T00:56:01;0.00;;;0.00;;
47365;SDS011;33105;47.964;7.982;2023-03-05T00:59:03;0.00;;;0.00;;
47365;SDS011;33105;47.964;7.982;2023-03-05T01:02:04;0.00;;;0.00;;
47365;SDS011;33105;47.964;7.982;2023-03-05T01:05:06;0.00;;;0.00;;
47365;SDS011;33105;47.964;7.982;2023-03-05T01:08:08;0.00;;;0.00;;
47365;SDS011;33105;47.964;7.982;2023-03-05T01:11:10;0.00;;;0.00;;
47365;SDS011;33105;47.964;7.982;2023-03-05T01:14:12;0.00;;;0.00;;
47365;SDS011;33105;47.964;7.982;2023-03-05T01:17:14;0.00;;;0.00;;
47365;SDS011;33105;47.964;7.982;2023-03-05T01:20:16;0.00;;;0.00;;
47365;SDS011;33105;47.964;7.982;2023-03-05T01:23:19;0.00;;;0.00;;
47365;SDS011;33105;47.964;7.982;2023-03-05T01:26:21;0.00;;;0.00;;
47365;SDS011;33105;47.964;7.982;2023-03-05T01:29:23;0.00;;;0.00;;
47365;SDS011;33105;47.964;7.982;2023-03-05T01:32:26;0.00;;;0.00;;
47365;SDS011;33105;47.964;7.982;2023-03-05T01:35:28;0.00;;;0.00;;
47365;SDS011;33105;47.964;7.982;2023-03-05T01:38:30;0.00;;;0.00;;
47365;SDS011;33105;47.964;7.982;2023-03-05T01:41:32;0.00;;;0.00;;
47365;SDS011;33105;47.964;7.982;2023-03-05T01:44:34;0.03;;;0.03;;
47365;SDS011;33105;47.964;7.982;2023-03-05T01:47:36;0.03;;;0.03;;
47365;SDS011;33105;47.964;7.982;2023-03-05T01:50:39;0.00;;;0.00;;
47365;SDS011;33105;47.964;7.982;2023-03-05T01:53:41;0.03;;;0.03;;
47365;SDS011;33105;47.964;7.982;2023-03-05T01:56:43;0.00;;;0.00;;
47365;SDS011;33105;47.964;7.982;2023-03-05T01:59:48;0.00;;;0.00;;
47365;SDS011;33105;47.964;7.982;2023-03-05T02:02:53;0.00;;;0.00;;
47365;SDS011;33105;47.964;7.982;2023-03-05T02:05:56;0.00;;;0.00;;
47365;SDS011;33105;47.964;7.982;2023-03-05T02:08:58;0.03;;;0.03;;
47365;SDS011;33105;47.964;7.982;2023-03-05T02:12:00;0.00;;;0.00;;
47365;SDS011;33105;47.964;7.982;2023-03-05T02:15:01;0.10;;;0.10;;
47365;SDS011;33105;47.964;7.982;2023-03-05T02:18:04;0.00;;;0.00;;
47365;SDS011;33105;47.964;7.982;2023-03-05T02:21:08;0.00;;;0.00;;
47365;SDS011;33105;47.964;7.982;2023-03-05T02:24:14;0.00;;;0.00;;
47365;SDS011;33105;47.964;7.982;2023-03-05T02:27:20;0.00;;;0.00;;
47365;SDS011;33105;47.964;7.982;2023-03-05T02:30:28;0.00;;;0.00;;
47365;SDS011;33105;47.964;7.982;2023-03-05T02:33:29;0.10;;;0.10;;
47365;SDS011;33105;47.964;7.982;2023-03-05T02:36:31;0.03;;;0.03;;
47365;SDS011;33105;47.964;7.982;2023-03-05T02:39:33;0.00;;;0.00;;
47365;SDS011;33105;47.964;7.982;2023-03-05T02:42:35;0.00;;;0.00;;
47365;SDS011;33105;47.964;7.982;2023-03-05T02:45:37;0.03;;;0.03;;
47365;SDS011;33105;47.964;7.982;2023-03-05T02:48:39;0.00;;;0.00;;
47365;SDS011;33105;47.964;7.982;2023-03-05T02:51:43;0.00;;;0.00;;
47365;SDS011;33105;47.964;7.982;2023-03-05T02:54:46;0.00;;;0.00;;
47365;SDS011;33105;47.964;7.982;2023-03-05T02:57:49;0.00;;;0.00;;
47365;SDS011;33105;47.964;7.982;2023-03-05T03:00:50;0.00;;;0.00;;
47365;SDS011;33105;47.964;7.982;2023-03-05T03:03:51;0.00;;;0.00;;
47365;SDS011;33105;47.964;7.982;2023-03-05T03:06:53;0.10;;;0.10;;
47365;SDS011;33105;47.964;7.982;2023-03-05T03:09:54;0.05;;;0.05;;
47365;SDS011;33105;47.964;7.982;2023-03-05T03:12:56;0.00;;;0.00;;
47365;SDS011;33105;47.964;7.982;2023-03-05T03:16:04;0.00;;;0.00;;
47365;SDS011;33105;47.964;7.982;2023-03-05T03:19:08;0.00;;;0.00;;
47365;SDS011;33105;47.964;7.982;2023-03-05T03:22:10;0.05;;;0.05;;
47365;SDS011;33105;47.964;7.982;2023-03-05T03:25:14;0.03;;;0.03;;
47365;SDS011;33105;47.964;7.982;2023-03-05T03:28:18;0.00;;;0.00;;
47365;SDS011;33105;47.964;7.982;2023-03-05T03:31:19;0.00;;;0.00;;
47365;SDS011;33105;47.964;7.982;2023-03-05T03:34:21;0.00;;;0.00;;
47365;SDS011;33105;47.964;7.982;2023-03-05T03:37:22;0.10;;;0.10;;
47365;SDS011;33105;47.964;7.982;2023-03-05T03:40:24;0.03;;;0.03;;
47365;SDS011;33105;47.964;7.982;2023-03-05T03:43:26;0.03;;;0.03;;
47365;SDS011;33105;47.964;7.982;2023-03-05T03:46:28;0.00;;;0.00;;
47365;SDS011;33105;47.964;7.982;2023-03-05T03:49:29;0.00;;;0.00;;
47365;SDS011;33105;47.964;7.982;2023-03-05T03:52:31;0.00;;;0.00;;
47365;SDS011;33105;47.964;7.982;2023-03-05T03:55:33;0.05;;;0.05;;
47365;SDS011;33105;47.964;7.982;2023-03-05T03:58:35;0.08;;;0.08;;
47365;SDS011;33105;47.964;7.982;2023-03-05T04:01:37;0.00;;;0.00;;
47365;SDS011;33105;47.964;7.982;2023-03-05T04:04:39;0.00;;;0.00;;
47365;SDS011;33105;47.964;7.982;2023-03-05T04:07:41;0.05;;;0.05;;
47365;SDS011;33105;47.964;7.982;2023-03-05T04:10:43;0.00;;;0.00;;
47365;SDS011;33105;47.964;7.982;2023-03-05T04:13:47;0.00;;;0.00;;
47365;SDS011;33105;47.964;7.982;2023-03-05T04:16:50;0.00;;;0.00;;
47365;SDS011;33105;47.964;7.982;2023-03-05T04:19:52;0.00;;;0.00;;
47365;SDS011;33105;47.964;7.982;2023-03-05T04:22:53;0.00;;;0.00;;
47365;SDS011;33105;47.964;7.982;2023-03-05T04:25:55;0.00;;;0.00;;
47365;SDS011;33105;47.964;7.982;2023-03-05T04:28:56;0.00;;;0.00;;
47365;SDS011;33105;47.964;7.982;2023-03-05T04:31:58;0.00;;;0.00;;
47365;SDS011;33105;47.964;7.982;2023-03-05T04:34:59;0.00;;;0.00;;
47365;SDS011;33105;47.964;7.982;2023-03-05T04:38:01;0.00;;;0.00;;
47365;SDS011;33105;47.964;7.982;2023-03-05T04:41:02;0.00;;;0.00;;
47365;SDS011;33105;47.964;7.982;2023-03-05T04:44:04;0.00;;;0.00;;
47365;SDS011;33105;47.964;7.982;2023-03-05T04:47:06;0.00;;;0.00;;
47365;SDS011;33105;47.964;7.982;2023-03-05T04:50:07;0.00;;;0.00;;
47365;SDS011;33105;47.964;7.982;2023-03-05T04:53:10;0.00;;;0.00;;
47365;SDS011;33105;47.964;7.982;2023-03-05T04:56:11;0.00;;;0.00;;
47365;SDS011;33105;47.964;7.982;2023-03-05T04:59:13;0.03;;;0.03;;
47365;SDS011;33105;47.964;7.982;2023-03-05T05:02:16;0.00;;;0.00;;
47365;SDS011;33105;47.964;7.982;2023-03-05T05:05:18;0.00;;;0.00;;
47365;SDS011;33105;47.964;7.982;2023-03-05T05:08:23;0.00;;;0.00;;
47365;SDS011;33105;47.964;7.982;2023-03-05T05:11:26;0.00;;;0.00;;
47365;SDS011;33105;47.964;7.982;2023-03-05T05:14:28;0.03;;;0.03;;
47365;SDS011;33105;47.964;7.982;2023-03-05T05:17:30;0.00;;;0.00;;
47365;SDS011;33105;47.964;7.982;2023-03-05T05:20:32;0.00;;;0.00;;
47365;SDS011;33105;47.964;7.982;2023-03-05T05:23:34;0.00;;;0.00;;
47365;SDS011;33105;47.964;7.982;2023-03-05T05:26:35;0.00;;;0.00;;
47365;SDS011;33105;47.964;7.982;2023-03-05T05:29:37;0.10;;;0.10;;
47365;SDS011;33105;47.964;7.982;2023-03-05T05:32:39;0.00;;;0.00;;
47365;SDS011;33105;47.964;7.982;2023-03-05T05:35:41;0.03;;;0.03;;
47365;SDS011;33105;47.964;7.982;2023-03-05T05:38:42;0.00;;;0.00;;
47365;SDS011;33105;47.964;7.982;2023-03-05T05:41:44;0.00;;;0.00;;
47365;SDS011;33105;47.964;7.982;2023-03-05T05:44:46;0.00;;;0.00;;
47365;SDS011;33105;47.964;7.982;2023-03-05T05:47:48;0.00;;;0.00;;
47365;SDS011;33105;47.964;7.982;2023-03-05T05:50:50;0.00;;;0.00;;
47365;SDS011;33105;47.964;7.982;2023-03-05T05:53:52;0.10;;;0.10;;
47365;SDS011;33105;47.964;7.982;2023-03-05T05:56:54;0.00;;;0.00;;
47365;SDS011;33105;47.964;7.982;2023-03-05T05:59:55;0.00;;;0.00;;
47365;SDS011;33105;47.964;7.982;2023-03-05T06:02:57;0.00;;;0.00;;
47365;SDS011;33105;47.964;7.982;2023-03-05T06:05:58;0.00;;;0.00;;
47365;SDS011;33105;47.964;7.982;2023-03-05T06:09:00;0.00;;;0.00;;
47365;SDS011;33105;47.964;7.982;2023-03-05T06:12:02;0.10;;;0.10;;
47365;SDS011;33105;47.964;7.982;2023-03-05T06:15:04;0.03;;;0.03;;
47365;SDS011;33105;47.964;7.982;2023-03-05T06:18:06;0.00;;;0.00;;
47365;SDS011;33105;47.964;7.982;2023-03-05T06:21:10;0.00;;;0.00;;
47365;SDS011;33105;47.964;7.982;2023-03-05T06:24:13;0.03;;;0.03;;
47365;SDS011;33105;47.964;7.982;2023-03-05T06:27:15;0.00;;;0.00;;
47365;SDS011;33105;47.964;7.982;2023-03-05T06:30:20;0.00;;;0.00;;
47365;SDS011;33105;47.964;7.982;2023-03-05T06:33:21;0.13;;;0.13;;
47365;SDS011;33105;47.964;7.982;2023-03-05T06:36:26;0.00;;;0.00;;
47365;SDS011;33105;47.964;7.982;2023-03-05T06:39:28;0.00;;;0.00;;
47365;SDS011;33105;47.964;7.982;2023-03-05T06:42:32;0.00;;;0.00;;
47365;SDS011;33105;47.964;7.982;2023-03-05T06:45:34;0.10;;;0.10;;
47365;SDS011;33105;47.964;7.982;2023-03-05T06:48:35;0.00;;;0.00;;
47365;SDS011;33105;47.964;7.982;2023-03-05T06:51:38;0.00;;;0.00;;
47365;SDS011;33105;47.964;7.982;2023-03-05T06:54:40;0.10;;;0.10;;
47365;SDS011;33105;47.964;7.982;2023-03-05T06:57:41;0.00;;;0.00;;
47365;SDS011;33105;47.964;7.982;2023-03-05T07:00:43;0.00;;;0.00;;
47365;SDS011;33105;47.964;7.982;2023-03-05T07:03:47;0.00;;;0.00;;
47365;SDS011;33105;47.964;7.982;2023-03-05T07:06:50;0.00;;;0.00;;
47365;SDS011;33105;47.964;7.982;2023-03-05T07:09:52;0.00;;;0.00;;
47365;SDS011;33105;47.964;7.982;2023-03-05T07:12:54;0.00;;;0.00;;
47365;SDS011;33105;47.964;7.982;2023-03-05T07:15:56;0.00;;;0.00;;
47365;SDS011;33105;47.964;7.982;2023-03-05T07:18:58;0.00;;;0.00;;
47365;SDS011;33105;47.964;7.982;2023-03-05T07:22:03;0.00;;;0.00;;
47365;SDS011;33105;47.964;7.982;2023-03-05T07:25:06;0.00;;;0.00;;
47365;SDS011;33105;47.964;7.982;2023-03-05T07:28:08;0.00;;;0.00;;
47365;SDS011;33105;47.964;7.982;2023-03-05T07:31:16;0.00;;;0.00;;
47365;SDS011;33105;47.964;7.982;2023-03-05T07:37:22;0.00;;;0.00;;
47365;SDS011;33105;47.964;7.982;2023-03-05T07:40:23;0.00;;;0.00;;
47365;SDS011;33105;47.964;7.982;2023-03-05T07:43:25;0.10;;;0.10;;
47365;SDS011;33105;47.964;7.982;2023-03-05T07:46:27;0.00;;;0.00;;
47365;SDS011;33105;47.964;7.982;2023-03-05T07:49:30;0.00;;;0.00;;
47365;SDS011;33105;47.964;7.982;2023-03-05T07:52:32;0.10;;;0.10;;
47365;SDS011;33105;47.964;7.982;2023-03-05T07:55:45;0.00;;;0.00;;
47365;SDS011;33105;47.964;7.982;2023-03-05T07:58:47;0.00;;;0.00;;
47365;SDS011;33105;47.964;7.982;2023-03-05T08:01:49;0.00;;;0.00;;
47365;SDS011;33105;47.964;7.982;2023-03-05T08:04:50;0.00;;;0.00;;
47365;SDS011;33105;47.964;7.982;2023-03-05T08:07:51;0.00;;;0.00;;
47365;SDS011;33105;47.964;7.982;2023-03-05T08:10:53;0.00;;;0.00;;
47365;SDS011;33105;47.964;7.982;2023-03-05T08:13:54;0.08;;;0.03;;
47365;SDS011;33105;47.964;7.982;2023-03-05T08:16:59;0.00;;;0.00;;
47365;SDS011;33105;47.964;7.982;2023-03-05T08:20:01;0.08;;;0.03;;
47365;SDS011;33105;47.964;7.982;2023-03-05T08:23:05;0.22;;;0.15;;
47365;SDS011;33105;47.964;7.982;2023-03-05T08:26:12;0.22;;;0.15;;
47365;SDS011;33105;47.964;7.982;2023-03-05T08:29:15;0.47;;;0.28;;
47365;SDS011;33105;47.964;7.982;2023-03-05T08:32:17;0.22;;;0.15;;
47365;SDS011;33105;47.964;7.982;2023-03-05T08:35:19;0.35;;;0.22;;
47365;SDS011;33105;47.964;7.982;2023-03-05T08:38:23;0.47;;;0.25;;
47365;SDS011;33105;47.964;7.982;2023-03-05T08:41:25;0.90;;;0.47;;
47365;SDS011;33105;47.964;7.982;2023-03-05T08:44:26;1.13;;;0.57;;
47365;SDS011;33105;47.964;7.982;2023-03-05T08:47:28;1.13;;;0.57;;
47365;SDS011;33105;47.964;7.982;2023-03-05T08:50:30;2.20;;;1.08;;
47365;SDS011;33105;47.964;7.982;2023-03-05T08:53:33;3.40;;;1.65;;
47365;SDS011;33105;47.964;7.982;2023-03-05T08:56:36;2.72;;;1.33;;
47365;SDS011;33105;47.964;7.982;2023-03-05T08:59:39;9.25;;;4.35;;
47365;SDS011;33105;47.964;7.982;2023-03-05T09:02:46;7.32;;;3.50;;
47365;SDS011;33105;47.964;7.982;2023-03-05T09:05:56;19.63;;;9.25;;
47365;SDS011;33105;47.964;7.982;2023-03-05T10:01:18;39.40;;;19.35;;
47365;SDS011;33105;47.964;7.982;2023-03-05T10:05:52;39.90;;;19.60;;
47365;SDS011;33105;47.964;7.982;2023-03-05T10:12:26;42.80;;;21.50;;
47365;SDS011;33105;47.964;7.982;2023-03-05T10:19:44;43.50;;;22.48;;
47365;SDS011;33105;47.964;7.982;2023-03-05T10:26:44;41.42;;;22.33;;
47365;SDS011;33105;47.964;7.982;2023-03-05T10:37:06;42.78;;;24.48;;
47365;SDS011;33105;47.964;7.982;2023-03-05T10:40:29;38.90;;;22.77;;
47365;SDS011;33105;47.964;7.982;2023-03-05T10:43:44;38.15;;;22.50;;
47365;SDS011;33105;47.964;7.982;2023-03-05T10:46:49;37.38;;;22.65;;
47365;SDS011;33105;47.964;7.982;2023-03-05T10:49:51;38.70;;;23.92;;
47365;SDS011;33105;47.964;7.982;2023-03-05T10:56:15;38.47;;;24.45;;
47365;SDS011;33105;47.964;7.982;2023-03-05T10:59:21;38.40;;;25.02;;
47365;SDS011;33105;47.964;7.982;2023-03-05T11:02:23;38.05;;;25.23;;
47365;SDS011;33105;47.964;7.982;2023-03-05T11:05:44;36.75;;;24.92;;
47365;SDS011;33105;47.964;7.982;2023-03-05T11:08:47;36.88;;;25.02;;
47365;SDS011;33105;47.964;7.982;2023-03-05T11:15:23;35.58;;;24.60;;
47365;SDS011;33105;47.964;7.982;2023-03-05T11:18:27;36.75;;;25.52;;
47365;SDS011;33105;47.964;7.982;2023-03-05T11:21:34;34.70;;;24.20;;
47365;SDS011;33105;47.964;7.982;2023-03-05T11:24:35;37.45;;;25.67;;
47365;SDS011;33105;47.964;7.982;2023-03-05T11:27:38;35.67;;;24.65;;
47365;SDS011;33105;47.964;7.982;2023-03-05T11:31:04;37.17;;;26.00;;
47365;SDS011;33105;47.964;7.982;2023-03-05T11:34:23;36.00;;;25.52;;
47365;SDS011;33105;47.964;7.982;2023-03-05T11:37:32;35.45;;;25.15;;
47365;SDS011;33105;47.964;7.982;2023-03-05T11:40:34;36.83;;;25.92;;
47365;SDS011;33105;47.964;7.982;2023-03-05T11:43:35;36.55;;;25.77;;
47365;SDS011;33105;47.964;7.982;2023-03-05T11:46:50;33.83;;;24.10;;
47365;SDS011;33105;47.964;7.982;2023-03-05T11:50:32;36.15;;;25.63;;
47365;SDS011;33105;47.964;7.982;2023-03-05T11:53:33;35.92;;;25.73;;
47365;SDS011;33105;47.964;7.982;2023-03-05T11:56:37;35.55;;;25.58;;
47365;SDS011;33105;47.964;7.982;2023-03-05T11:59:39;34.90;;;25.35;;
47365;SDS011;33105;47.964;7.982;2023-03-05T12:02:43;34.45;;;25.20;;
47365;SDS011;33105;47.964;7.982;2023-03-05T12:05:52;34.35;;;25.23;;
47365;SDS011;33105;47.964;7.982;2023-03-05T12:08:59;34.28;;;25.38;;
47365;SDS011;33105;47.964;7.982;2023-03-05T12:12:06;33.63;;;25.00;;
47365;SDS011;33105;47.964;7.982;2023-03-05T12:18:32;35.10;;;25.70;;
47365;SDS011;33105;47.964;7.982;2023-03-05T12:21:35;34.35;;;25.48;;
47365;SDS011;33105;47.964;7.982;2023-03-05T12:24:40;34.05;;;25.35;;
47365;SDS011;33105;47.964;7.982;2023-03-05T12:27:41;33.40;;;25.02;;
47365;SDS011;33105;47.964;7.982;2023-03-05T12:33:48;34.53;;;25.52;;
47365;SDS011;33105;47.964;7.982;2023-03-05T12:36:49;34.50;;;25.45;;
47365;SDS011;33105;47.964;7.982;2023-03-05T12:39:57;33.35;;;25.00;;
47365;SDS011;33105;47.964;7.982;2023-03-05T12:43:29;34.25;;;25.55;;
47365;SDS011;33105;47.964;7.982;2023-03-05T12:49:38;34.50;;;25.38;;
47365;SDS011;33105;47.964;7.982;2023-03-05T12:52:45;36.42;;;26.00;;
47365;SDS011;33105;47.964;7.982;2023-03-05T12:58:59;36.30;;;26.00;;
47365;SDS011;33105;47.964;7.982;2023-03-05T13:02:04;36.42;;;26.00;;
47365;SDS011;33105;47.964;7.982;2023-03-05T13:05:30;36.78;;;26.08;;
47365;SDS011;33105;47.964;7.982;2023-03-05T13:08:34;37.28;;;26.13;;
47365;SDS011;33105;47.964;7.982;2023-03-05T13:11:38;64.43;;;30.63;;
47365;SDS011;33105;47.964;7.982;2023-03-05T13:14:40;51.13;;;28.17;;
47365;SDS011;33105;47.964;7.982;2023-03-05T13:17:50;47.05;;;27.92;;
47365;SDS011;33105;47.964;7.982;2023-03-05T13:21:05;45.45;;;27.63;;
47365;SDS011;33105;47.964;7.982;2023-03-05T13:24:17;45.72;;;27.85;;
47365;SDS011;33105;47.964;7.982;2023-03-05T13:27:29;45.63;;;28.05;;
47365;SDS011;33105;47.964;7.982;2023-03-05T13:30:32;47.22;;;28.50;;
47365;SDS011;33105;47.964;7.982;2023-03-05T13:33:35;47.00;;;28.15;;
47365;SDS011;33105;47.964;7.982;2023-03-05T13:36:37;45.83;;;28.15;;
47365;SDS011;33105;47.964;7.982;2023-03-05T13:39:49;45.20;;;27.90;;
47365;SDS011;33105;47.964;7.982;2023-03-05T13:42:54;45.13;;;27.92;;
47365;SDS011;33105;47.964;7.982;2023-03-05T13:45:57;44.53;;;27.75;;
47365;SDS011;33105;47.964;7.982;2023-03-05T13:52:28;43.15;;;27.45;;
47365;SDS011;33105;47.964;7.982;2023-03-05T13:55:31;42.88;;;27.15;;
47365;SDS011;33105;47.964;7.982;2023-03-05T14:01:48;43.92;;;27.60;;
47365;SDS011;33105;47.964;7.982;2023-03-05T14:04:51;43.63;;;27.60;;
47365;SDS011;33105;47.964;7.982;2023-03-05T14:07:52;43.42;;;27.50;;
47365;SDS011;33105;47.964;7.982;2023-03-05T14:10:56;43.25;;;27.52;;
47365;SDS011;33105;47.964;7.982;2023-03-05T14:14:15;42.03;;;27.00;;
47365;SDS011;33105;47.964;7.982;2023-03-05T14:17:21;42.58;;;27.33;;
47365;SDS011;33105;47.964;7.982;2023-03-05T14:20:27;43.15;;;27.48;;
47365;SDS011;33105;47.964;7.982;2023-03-05T14:26:37;43.53;;;27.58;;
47365;SDS011;33105;47.964;7.982;2023-03-05T14:29:46;43.45;;;27.63;;
47365;SDS011;33105;47.964;7.982;2023-03-05T14:32:49;43.53;;;27.63;;
47365;SDS011;33105;47.964;7.982;2023-03-05T14:35:53;42.95;;;27.35;;
47365;SDS011;33105;47.964;7.982;2023-03-05T14:38:59;43.83;;;27.73;;
47365;SDS011;33105;47.964;7.982;2023-03-05T14:45:30;43.63;;;27.60;;
47365;SDS011;33105;47.964;7.982;2023-03-05T14:48:37;44.30;;;28.05;;
47365;SDS011;33105;47.964;7.982;2023-03-05T14:51:39;42.90;;;27.45;;
47365;SDS011;33105;47.964;7.982;2023-03-05T14:54:43;43.67;;;27.73;;
47365;SDS011;33105;47.964;7.982;2023-03-05T14:57:46;43.80;;;27.65;;
47365;SDS011;33105;47.964;7.982;2023-03-05T15:00:48;43.90;;;27.88;;
47365;SDS011;33105;47.964;7.982;2023-03-05T15:03:50;43.20;;;27.75;;
47365;SDS011;33105;47.964;7.982;2023-03-05T15:06:52;43.42;;;27.75;;
47365;SDS011;33105;47.964;7.982;2023-03-05T15:09:54;43.63;;;27.88;;
47365;SDS011;33105;47.964;7.982;2023-03-05T15:12:56;43.10;;;27.48;;
47365;SDS011;33105;47.964;7.982;2023-03-05T15:15:58;44.00;;;27.92;;
47365;SDS011;33105;47.964;7.982;2023-03-05T15:18:59;43.35;;;27.70;;
47365;SDS011;33105;47.964;7.982;2023-03-05T15:22:03;43.55;;;27.80;;
47365;SDS011;33105;47.964;7.982;2023-03-05T15:25:06;43.72;;;27.80;;
47365;SDS011;33105;47.964;7.982;2023-03-05T15:28:08;43.78;;;27.80;;
47365;SDS011;33105;47.964;7.982;2023-03-05T15:31:09;44.65;;;28.25;;
47365;SDS011;33105;47.964;7.982;2023-03-05T15:34:11;44.72;;;28.05;;
47365;SDS011;33105;47.964;7.982;2023-03-05T15:37:12;44.85;;;28.02;;
47365;SDS011;33105;47.964;7.982;2023-03-05T15:40:13;45.50;;;28.30;;
47365;SDS011;33105;47.964;7.982;2023-03-05T15:43:15;46.50;;;28.55;;
47365;SDS011;33105;47.964;7.982;2023-03-05T15:46:17;47.97;;;28.77;;
47365;SDS011;33105;47.964;7.982;2023-03-05T15:49:18;49.47;;;29.05;;
47365;SDS011;33105;47.964;7.982;2023-03-05T15:52:21;50.25;;;29.23;;
47365;SDS011;33105;47.964;7.982;2023-03-05T15:55:22;50.55;;;28.95;;
47365;SDS011;33105;47.964;7.982;2023-03-05T15:58:23;51.72;;;29.50;;
47365;SDS011;33105;47.964;7.982;2023-03-05T16:01:25;52.00;;;29.83;;
47365;SDS011;33105;47.964;7.982;2023-03-05T16:04:26;49.05;;;28.50;;
47365;SDS011;33105;47.964;7.982;2023-03-05T16:07:29;48.92;;;28.35;;
47365;SDS011;33105;47.964;7.982;2023-03-05T16:10:31;50.35;;;28.17;;
47365;SDS011;33105;47.964;7.982;2023-03-05T16:13:32;51.60;;;28.85;;
47365;SDS011;33105;47.964;7.982;2023-03-05T16:16:35;52.58;;;29.48;;
47365;SDS011;33105;47.964;7.982;2023-03-05T16:19:39;51.38;;;28.73;;
47365;SDS011;33105;47.964;7.982;2023-03-05T16:22:45;50.25;;;28.45;;
47365;SDS011;33105;47.964;7.982;2023-03-05T16:25:47;50.28;;;28.65;;
47365;SDS011;33105;47.964;7.982;2023-03-05T16:28:48;51.42;;;29.40;;
47365;SDS011;33105;47.964;7.982;2023-03-05T16:31:49;50.95;;;29.17;;
47365;SDS011;33105;47.964;7.982;2023-03-05T16:34:51;50.25;;;28.98;;
47365;SDS011;33105;47.964;7.982;2023-03-05T16:37:52;50.40;;;29.05;;
47365;SDS011;33105;47.964;7.982;2023-03-05T16:40:54;51.15;;;29.25;;
47365;SDS011;33105;47.964;7.982;2023-03-05T16:43:55;51.63;;;29.55;;
47365;SDS011;33105;47.964;7.982;2023-03-05T16:46:57;51.72;;;29.52;;
47365;SDS011;33105;47.964;7.982;2023-03-05T16:49:58;52.33;;;29.67;;
47365;SDS011;33105;47.964;7.982;2023-03-05T16:53:00;51.85;;;29.45;;
47365;SDS011;33105;47.964;7.982;2023-03-05T16:56:03;52.53;;;29.67;;
47365;SDS011;33105;47.964;7.982;2023-03-05T16:59:06;52.40;;;29.35;;
47365;SDS011;33105;47.964;7.982;2023-03-05T17:02:07;52.08;;;29.13;;
47365;SDS011;33105;47.964;7.982;2023-03-05T17:05:09;52.75;;;29.30;;
47365;SDS011;33105;47.964;7.982;2023-03-05T17:08:12;52.58;;;29.05;;
47365;SDS011;33105;47.964;7.982;2023-03-05T17:11:14;53.33;;;29.25;;
47365;SDS011;33105;47.964;7.982;2023-03-05T17:14:16;53.58;;;29.30;;
47365;SDS011;33105;47.964;7.982;2023-03-05T17:17:17;53.40;;;28.98;;
47365;SDS011;33105;47.964;7.982;2023-03-05T17:20:20;54.55;;;29.33;;
47365;SDS011;33105;47.964;7.982;2023-03-05T17:23:22;55.58;;;29.67;;
47365;SDS011;33105;47.964;7.982;2023-03-05T17:26:24;54.17;;;28.80;;
47365;SDS011;33105;47.964;7.982;2023-03-05T17:29:26;54.03;;;28.70;;
47365;SDS011;33105;47.964;7.982;2023-03-05T17:32:28;52.10;;;27.35;;
47365;SDS011;33105;47.964;7.982;2023-03-05T17:35:30;55.92;;;29.10;;
47365;SDS011;33105;47.964;7.982;2023-03-05T17:38:34;54.88;;;28.38;;
47365;SDS011;33105;47.964;7.982;2023-03-05T17:41:37;55.38;;;28.48;;
47365;SDS011;33105;47.964;7.982;2023-03-05T17:44:40;56.75;;;29.20;;
47365;SDS011;33105;47.964;7.982;2023-03-05T17:47:42;54.88;;;28.00;;
47365;SDS011;33105;47.964;7.982;2023-03-05T17:50:45;54.63;;;27.88;;
47365;SDS011;33105;47.964;7.982;2023-03-05T17:53:48;54.80;;;27.88;;
47365;SDS011;33105;47.964;7.982;2023-03-05T17:56:52;52.38;;;26.63;;
47365;SDS011;33105;47.964;7.982;2023-03-05T17:59:56;53.50;;;27.05;;
47365;SDS011;33105;47.964;7.982;2023-03-05T18:02:58;51.60;;;25.92;;
47365;SDS011;33105;47.964;7.982;2023-03-05T18:06:00;53.55;;;26.80;;
47365;SDS011;33105;47.964;7.982;2023-03-05T18:51:51;39.65;;;19.33;;
47365;SDS011;33105;47.964;7.982;2023-03-05T19:03:24;42.03;;;20.25;;
47365;SDS011;33105;47.964;7.982;2023-03-05T19:06:33;41.33;;;19.85;;
47365;SDS011;33105;47.964;7.982;2023-03-05T19:19:09;33.92;;;16.38;;
47365;SDS011;33105;47.964;7.982;2023-03-05T19:22:20;38.20;;;18.42;;
47365;SDS011;33105;47.964;7.982;2023-03-05T19:25:30;32.40;;;15.68;;
47365;SDS011;33105;47.964;7.982;2023-03-05T19:28:40;31.85;;;15.32;;
47365;SDS011;33105;47.964;7.982;2023-03-05T19:31:55;30.40;;;14.65;;
47365;SDS011;33105;47.964;7.982;2023-03-05T19:34:57;28.92;;;13.95;;
47365;SDS011;33105;47.964;7.982;2023-03-05T19:38:02;27.15;;;13.05;;
47365;SDS011;33105;47.964;7.982;2023-03-05T19:41:04;27.15;;;13.13;;
47365;SDS011;33105;47.964;7.982;2023-03-05T19:44:19;28.02;;;13.45;;
47365;SDS011;33105;47.964;7.982;2023-03-05T19:47:40;20.48;;;9.82;;
47365;SDS011;33105;47.964;7.982;2023-03-05T19:50:52;22.83;;;10.93;;
47365;SDS011;33105;47.964;7.982;2023-03-05T19:54:19;14.95;;;7.25;;
47365;SDS011;33105;47.964;7.982;2023-03-05T19:57:28;13.65;;;6.55;;
47365;SDS011;33105;47.964;7.982;2023-03-05T20:04:47;0.85;;;0.47;;
47365;SDS011;33105;47.964;7.982;2023-03-05T20:07:56;3.13;;;1.50;;
47365;SDS011;33105;47.964;7.982;2023-03-05T20:10:58;2.60;;;1.30;;
47365;SDS011;33105;47.964;7.982;2023-03-05T20:14:19;1.98;;;1.02;;
47365;SDS011;33105;47.964;7.982;2023-03-05T20:17:21;0.10;;;0.10;;
47365;SDS011;33105;47.964;7.982;2023-03-05T20:20:23;0.08;;;0.08;;
47365;SDS011;33105;47.964;7.982;2023-03-05T20:23:26;0.25;;;0.25;;
47365;SDS011;33105;47.964;7.982;2023-03-05T20:26:32;0.05;;;0.05;;
47365;SDS011;33105;47.964;7.982;2023-03-05T20:29:34;0.03;;;0.03;;
47365;SDS011;33105;47.964;7.982;2023-03-05T20:32:36;0.10;;;0.10;;
47365;SDS011;33105;47.964;7.982;2023-03-05T20:35:38;0.10;;;0.10;;
47365;SDS011;33105;47.964;7.982;2023-03-05T20:38:43;0.10;;;0.10;;
47365;SDS011;33105;47.964;7.982;2023-03-05T20:41:46;0.05;;;0.05;;
